createdAt,value
2023-02-03T00:04:09.419Z,100982.50
2023-02-03T00:08:22.867Z,100973.88
2023-02-03T00:12:36.785Z,100970.38
2023-02-03T00:16:50.623Z,100963.38
2023-02-03T00:21:02.925Z,100971.13
2023-02-03T00:25:16.601Z,100942.16
2023-02-03T00:29:28.869Z,100937.53
2023-02-03T00:33:41.266Z,100952.28
2023-02-03T00:37:55.475Z,100949.75
2023-02-03T00:42:07.881Z,100954.81
2023-02-03T00:46:20.930Z,100964.53
2023-02-03T00:50:33.363Z,100967.13
2023-02-03T00:54:45.580Z,100976.88
2023-02-03T00:58:58.346Z,100975.31
2023-02-03T01:03:10.930Z,100961.97
2023-02-03T01:07:23.231Z,100961.72
2023-02-03T01:11:35.836Z,100970.03
2023-02-03T01:15:48.808Z,100962.00
2023-02-03T01:20:01.084Z,100962.66
2023-02-03T01:24:15.351Z,100957.31
2023-02-03T01:28:27.645Z,100935.84
2023-02-03T01:32:40.104Z,100942.94
2023-02-03T01:36:52.492Z,100938.44
2023-02-03T01:41:07.624Z,100945.03
2023-02-03T01:45:20.008Z,100936.13
2023-02-03T01:49:38.487Z,100959.44
2023-02-03T01:53:54.647Z,100972.03
2023-02-03T01:58:13.221Z,100964.41
2023-02-03T02:02:25.821Z,100959.34
2023-02-03T02:06:39.101Z,100951.63
2023-02-03T02:10:58.308Z,100949.19
2023-02-03T02:15:13.247Z,100936.84
2023-02-03T02:20:10.885Z,100930.81
2023-02-03T02:25:00.703Z,100900.84
2023-02-03T02:29:31.170Z,100887.00
2023-02-03T02:33:43.442Z,100890.31
2023-02-03T02:38:23.468Z,100850.78
2023-02-03T02:42:55.676Z,100847.22
2023-02-03T02:47:24.929Z,100856.13
2023-02-03T02:51:45.443Z,100839.56
2023-02-03T02:56:00.145Z,100888.75
2023-02-03T03:00:12.872Z,100904.69
2023-02-03T03:04:28.835Z,100904.69
2023-02-03T03:08:54.084Z,100936.97
2023-02-03T03:13:10.840Z,101002.28
2023-02-03T03:17:35.167Z,101012.38
2023-02-03T03:22:01.706Z,101011.50
2023-02-03T03:26:42.198Z,101013.94
2023-02-03T03:30:54.769Z,100991.75
2023-02-03T03:35:08.263Z,100983.50
2023-02-03T03:39:26.643Z,100968.13
2023-02-03T03:43:43.824Z,100946.13
2023-02-03T03:48:03.018Z,100921.59
2023-02-03T03:52:24.710Z,100914.84
2023-02-03T03:56:52.015Z,100911.78
2023-02-03T04:01:07.734Z,100919.16
2023-02-03T04:05:20.980Z,100936.16
2023-02-03T04:09:37.766Z,100938.69
2023-02-03T04:13:50.956Z,100940.84
2023-02-03T04:18:04.102Z,100947.78
2023-02-03T04:22:17.884Z,100958.03
2023-02-03T04:26:30.307Z,100961.75
2023-02-03T04:30:42.721Z,100958.91
2023-02-03T04:34:56.207Z,100980.47
2023-02-03T04:39:08.497Z,100988.75
2023-02-03T04:43:20.939Z,100986.59
2023-02-03T04:47:33.883Z,100984.38
2023-02-03T04:51:48.607Z,100991.59
2023-02-03T04:56:02.109Z,100993.69
2023-02-03T05:00:15.195Z,100997.38
2023-02-03T05:04:29.918Z,101009.97
2023-02-03T05:08:45.071Z,101016.63
2023-02-03T05:12:58.406Z,101025.34
2023-02-03T05:17:10.737Z,101028.50
2023-02-03T05:21:23.099Z,101029.28
2023-02-03T05:25:35.427Z,101039.50
2023-02-03T05:29:47.653Z,101042.56
2023-02-03T05:34:00.011Z,101046.13
2023-02-03T05:38:12.294Z,101047.69
2023-02-03T05:42:24.618Z,101053.56
2023-02-03T05:46:37.046Z,101054.38
2023-02-03T05:50:51.224Z,101060.09
2023-02-03T05:55:04.001Z,101078.28
2023-02-03T05:59:16.321Z,101090.91
2023-02-03T06:03:28.696Z,101108.97
2023-02-03T06:07:41.060Z,101118.03
2023-02-03T06:11:53.520Z,101116.69
2023-02-03T06:16:06.075Z,101131.44
2023-02-03T06:20:20.262Z,101135.19
2023-02-03T06:24:32.634Z,101147.97
2023-02-03T06:28:45.954Z,101149.44
2023-02-03T06:32:59.564Z,101165.16
2023-02-03T06:37:12.529Z,101169.84
2023-02-03T06:41:29.622Z,101187.53
2023-02-03T06:45:42.314Z,101195.19
2023-02-03T06:49:54.628Z,101210.25
2023-02-03T06:54:08.034Z,101225.50
2023-02-03T06:58:21.076Z,101218.78
2023-02-03T07:02:34.802Z,101234.44
2023-02-03T07:06:47.474Z,101225.94
2023-02-03T07:10:59.781Z,101235.81
2023-02-03T07:15:13.400Z,101226.38
2023-02-03T07:19:26.107Z,101236.06
2023-02-03T07:23:38.534Z,101222.66
2023-02-03T07:27:51.564Z,101234.31
2023-02-03T07:32:05.010Z,101222.78
2023-02-03T07:36:17.306Z,101220.00
2023-02-03T07:40:29.753Z,101231.63
2023-02-03T07:44:42.158Z,101236.38
2023-02-03T07:48:54.569Z,101246.34
2023-02-03T07:53:09.560Z,101246.91
2023-02-03T07:57:21.974Z,101253.75
2023-02-03T08:01:34.460Z,101260.81
2023-02-03T08:05:47.855Z,101258.91
2023-02-03T08:10:00.303Z,101278.53
2023-02-03T08:14:13.784Z,101284.09
2023-02-03T08:18:27.138Z,101300.16
2023-02-03T08:22:39.430Z,101291.56
2023-02-03T08:26:53.398Z,101298.00
2023-02-03T08:31:14.788Z,101306.78
2023-02-03T08:35:27.406Z,101309.41
2023-02-03T08:39:40.449Z,101310.91
2023-02-03T08:43:56.024Z,101301.13
2023-02-03T08:48:08.354Z,101296.84
2023-02-03T08:52:20.943Z,101294.38
2023-02-03T08:56:34.466Z,101308.28
2023-02-03T09:00:50.143Z,101304.16
2023-02-03T09:05:02.622Z,101306.59
2023-02-03T09:09:15.826Z,101315.50
2023-02-03T09:13:29.168Z,101316.66
2023-02-03T09:17:41.546Z,101318.00
2023-02-03T09:21:53.977Z,101316.56
2023-02-03T09:26:09.378Z,101322.19
2023-02-03T09:30:22.041Z,101342.38
2023-02-03T09:34:36.106Z,101344.66
2023-02-03T09:38:48.558Z,101349.94
2023-02-03T09:43:20.123Z,101348.41
2023-02-03T09:47:40.224Z,101343.25
2023-02-03T09:51:58.384Z,101339.28
2023-02-03T09:56:37.934Z,101327.66
2023-02-03T10:01:08.696Z,101334.84
2023-02-03T10:05:36.867Z,101345.97
2023-02-03T10:10:15.362Z,101329.38
2023-02-03T10:14:52.422Z,101339.44
2023-02-03T10:19:17.432Z,101342.91
2023-02-03T10:23:39.597Z,101342.41
2023-02-03T10:27:58.887Z,101341.78
2023-02-03T10:32:13.456Z,101325.22
2023-02-03T10:36:50.361Z,101326.78
2023-02-03T10:41:03.901Z,101316.28
2023-02-03T10:45:21.140Z,101316.97
2023-02-03T10:49:34.975Z,101307.00
2023-02-03T10:53:47.624Z,101319.75
2023-02-03T10:58:14.347Z,101321.72
2023-02-03T11:02:30.431Z,101312.75
2023-02-03T11:06:58.510Z,101311.03
2023-02-03T11:11:16.347Z,101304.91
2023-02-03T11:15:29.081Z,101296.91
2023-02-03T11:19:48.266Z,101292.28
2023-02-03T11:24:20.431Z,101285.28
2023-02-03T11:28:33.214Z,101273.66
2023-02-03T11:32:49.358Z,101276.41
2023-02-03T11:37:37.735Z,101279.81
2023-02-03T11:41:51.083Z,101295.53
2023-02-03T11:46:08.484Z,101296.56
2023-02-03T11:50:29.703Z,101295.91
2023-02-03T11:55:04.507Z,101285.28
2023-02-03T11:59:29.750Z,101273.47
2023-02-03T12:04:03.013Z,101266.47
2023-02-03T12:08:37.416Z,101270.53
2023-02-03T12:13:30.923Z,101261.72
2023-02-03T12:17:53.099Z,101267.03
2023-02-03T12:22:41.003Z,101253.00
2023-02-03T12:27:21.071Z,101260.00
2023-02-03T12:31:33.505Z,101240.53
2023-02-03T12:36:11.543Z,101245.28
2023-02-03T12:40:37.172Z,101241.78
2023-02-03T12:45:10.894Z,101234.53
2023-02-03T12:49:31.847Z,101224.88
2023-02-03T12:53:53.609Z,101225.63
2023-02-03T12:58:31.565Z,101211.66
2023-02-03T13:03:06.632Z,101200.06
2023-02-03T13:07:36.580Z,101195.72
2023-02-03T13:12:09.753Z,101203.97
2023-02-03T13:16:29.664Z,101198.44
2023-02-03T13:20:42.407Z,101204.06
2023-02-03T13:25:22.056Z,101201.53
2023-02-03T13:29:41.075Z,101193.56
2023-02-03T13:34:25.576Z,101187.28
2023-02-03T13:39:11.441Z,101193.66
2023-02-03T13:43:38.115Z,101192.63
2023-02-03T13:47:55.160Z,101187.25
2023-02-03T13:52:28.792Z,101182.06
2023-02-03T13:56:55.064Z,101179.38
2023-02-03T14:01:34.142Z,101169.44
2023-02-03T14:05:49.815Z,101159.84
2023-02-03T14:10:17.513Z,101150.25
2023-02-03T14:14:51.535Z,101157.84
2023-02-03T14:19:09.917Z,101145.09
2023-02-03T14:23:27.403Z,101146.75
2023-02-03T14:27:39.883Z,101120.47
2023-02-03T14:32:20.935Z,101071.13
2023-02-03T14:36:37.168Z,101082.00
2023-02-03T14:41:01.063Z,101087.16
2023-02-03T14:45:35.200Z,101092.72
2023-02-03T14:50:15.590Z,101105.03
2023-02-03T14:54:46.167Z,101100.44
2023-02-03T14:59:06.142Z,101118.47
2023-02-03T15:03:28.116Z,101135.66
2023-02-03T15:07:52.615Z,101137.97
2023-02-03T15:12:19.005Z,101174.22
2023-02-03T15:16:39.969Z,101171.66
2023-02-03T15:20:56.361Z,101172.44
2023-02-03T15:25:18.619Z,101180.06
2023-02-03T15:29:36.252Z,101173.75
2023-02-03T15:33:50.457Z,101174.56
2023-02-03T15:38:07.238Z,101163.59
2023-02-03T15:42:30.822Z,101144.25
2023-02-03T15:46:48.621Z,101137.13
2023-02-03T15:51:10.217Z,101145.22
2023-02-03T15:55:42.984Z,101155.53
2023-02-03T15:59:59.082Z,101170.22
2023-02-03T16:04:13.249Z,101177.78
2023-02-03T16:08:36.799Z,101176.53
2023-02-03T16:12:49.154Z,101179.81
2023-02-03T16:17:06.313Z,101190.13
2023-02-03T16:21:48.511Z,101194.25
2023-02-03T16:26:18.977Z,101194.72
2023-02-03T16:30:49.874Z,101180.72
2023-02-03T16:35:21.105Z,101193.84
2023-02-03T16:39:51.972Z,101204.91
2023-02-03T16:44:22.739Z,101200.03
2023-02-03T16:48:54.709Z,101187.19
2023-02-03T16:53:16.096Z,101199.16
2023-02-03T16:57:28.342Z,101198.88
2023-02-03T17:01:40.712Z,101187.31
2023-02-03T17:05:53.729Z,101191.34
2023-02-03T17:10:07.859Z,101188.47
2023-02-03T17:14:20.474Z,101186.63
2023-02-03T17:18:33.911Z,101176.97
2023-02-03T17:22:46.268Z,101178.75
2023-02-03T17:26:59.130Z,101187.66
2023-02-03T17:31:19.285Z,101184.88
2023-02-03T17:35:31.863Z,101173.81
2023-02-03T17:57:27.467Z,101189.47
2023-02-03T18:01:40.322Z,101181.75
2023-02-03T18:05:53.344Z,101184.03
2023-02-03T18:10:06.206Z,101174.63
2023-02-03T18:14:18.522Z,101171.72
2023-02-03T18:18:31.335Z,101168.50
2023-02-03T18:22:52.790Z,101167.31
2023-02-03T18:27:05.749Z,101148.56
2023-02-03T18:31:18.607Z,101144.59
2023-02-03T18:35:33.557Z,101144.72
2023-02-03T18:39:48.384Z,101129.63
2023-02-03T18:44:02.707Z,101128.03
2023-02-03T18:48:14.990Z,101107.91
2023-02-03T18:52:27.653Z,101111.97
2023-02-03T18:56:39.923Z,101111.06
2023-02-03T19:00:52.203Z,101105.63
2023-02-03T19:05:05.576Z,101085.75
2023-02-03T19:09:19.608Z,101084.28
2023-02-03T19:13:31.891Z,101064.50
2023-02-03T19:17:44.716Z,101063.78
2023-02-03T19:21:58.689Z,101055.38
2023-02-03T19:26:12.465Z,101053.63
2023-02-03T19:30:24.793Z,101062.72
2023-02-03T19:34:37.110Z,101052.56
2023-02-03T19:38:50.242Z,101050.66
2023-02-03T19:43:04.223Z,101050.31
2023-02-03T19:47:16.513Z,101034.66
2023-02-03T19:51:29.079Z,101028.63
2023-02-03T19:55:46.708Z,101032.75
2023-02-03T19:59:59.030Z,101029.59
2023-02-03T20:04:11.306Z,101030.63
2023-02-03T20:08:26.341Z,101042.31
2023-02-03T20:12:41.708Z,101023.06
2023-02-03T20:16:55.373Z,101018.94
2023-02-03T20:21:07.876Z,101011.88
2023-02-03T20:25:20.428Z,101008.38
2023-02-03T20:29:32.672Z,100998.84
2023-02-03T20:33:49.813Z,100987.56
2023-02-03T20:38:02.210Z,100989.50
2023-02-03T20:42:17.080Z,100986.25
2023-02-03T20:46:29.493Z,100972.97
2023-02-03T20:50:47.981Z,100968.63
2023-02-03T20:55:01.920Z,100956.63
2023-02-03T20:59:18.141Z,100947.25
2023-02-03T21:03:49.244Z,100940.25
2023-02-03T21:08:02.143Z,100931.28
2023-02-03T21:12:15.290Z,100939.34
2023-02-03T21:16:35.867Z,100940.25
2023-02-03T21:20:48.542Z,100939.03
2023-02-03T21:25:03.525Z,100926.06
2023-02-03T21:29:37.160Z,100924.47
2023-02-03T21:33:49.915Z,100932.56
2023-02-03T21:38:04.240Z,100940.03
2023-02-03T21:42:41.497Z,100942.53
2023-02-03T21:46:53.825Z,100932.84
2023-02-03T21:51:27.998Z,100943.97
2023-02-03T21:55:43.593Z,100951.94
2023-02-03T21:59:56.031Z,100938.13
2023-02-03T22:04:09.562Z,100932.69
2023-02-03T22:08:23.784Z,100942.44
2023-02-03T22:13:32.252Z,100923.88
2023-02-03T22:18:03.233Z,100922.38
2023-02-03T22:22:16.134Z,100930.81
2023-02-03T22:26:28.858Z,100941.88
2023-02-03T22:30:42.851Z,100932.31
2023-02-03T22:34:58.722Z,100926.84
2023-02-03T22:39:11.462Z,100918.88
2023-02-03T22:43:25.262Z,100913.00
2023-02-03T22:47:37.654Z,100902.47
2023-02-03T22:51:50.038Z,100911.13
2023-02-03T22:56:02.572Z,100911.06
2023-02-03T23:00:23.525Z,100901.84
2023-02-03T23:05:21.874Z,100880.03
2023-02-03T23:09:36.120Z,100871.28
2023-02-03T23:13:53.145Z,100864.91
2023-02-03T23:18:06.467Z,100858.84
2023-02-03T23:22:18.986Z,100856.41
2023-02-03T23:26:31.487Z,100836.56
2023-02-03T23:30:47.463Z,100844.59
2023-02-03T23:35:19.770Z,100848.84
2023-02-03T23:39:32.037Z,100848.16
2023-02-03T23:43:44.319Z,100847.41
2023-02-03T23:47:56.812Z,100827.34
2023-02-03T23:52:09.135Z,100826.59
2023-02-03T23:56:22.847Z,100834.66
